Time,TemperatureF,DewpointF,PressureIn,WindDirection,WindDirectionDegrees,WindSpeedMPH,WindSpeedGustMPH,Humidity,HourlyPrecipIn,Conditions,Clouds,dailyrainin,SoftwareType,DateUTC
2013-03-26 00:00:00,58.5,21.8,30.12,WNW,299,3.6,3.6,24,0.00,,---,0.00,VWS V14.01,2013-03-26 04:00:00,
2013-03-26 00:01:00,58.3,21.7,30.12,West,274,4.0,4.0,24,0.00,,---,0.00,VWS V14.01,2013-03-26 04:01:00,
2013-03-26 00:02:00,58.3,21.7,30.12,NW,319,3.6,4.0,24,0.00,,---,0.00,VWS V14.01,2013-03-26 04:02:00,
2013-03-26 00:07:00,58.3,21.7,30.09,NNW,335,4.0,4.0,24,0.00,,---,0.00,VWS V14.01,2013-03-26 04:07:00,
2013-03-26 00:13:00,58.1,21.5,30.09,West,273,3.6,3.6,24,0.00,,---,0.00,VWS V14.01,2013-03-26 04:13:00,
2013-03-26 00:18:00,57.9,21.4,30.09,WSW,251,5.4,5.4,24,0.00,,---,0.00,VWS V14.01,2013-03-26 04:18:00,
2013-03-26 00:23:00,57.7,21.2,30.09,WNW,295,3.6,3.6,24,0.00,,---,0.00,VWS V14.01,2013-03-26 04:23:00,
2013-03-26 00:28:00,58.3,22.6,30.12,West,276,3.1,5.8,25,0.00,,---,0.00,VWS V14.01,2013-03-26 04:28:00,
2013-03-26 00:34:00,58.3,22.6,30.12,WNW,286,3.1,3.1,25,0.00,,---,0.00,VWS V14.01,2013-03-26 04:34:00,
2013-03-26 00:39:00,58.6,22.9,30.12,NW,319,3.1,3.1,25,0.00,,---,0.00,VWS V14.01,2013-03-26 04:39:00,
2013-03-26 00:44:00,58.8,22.1,30.12,WNW,282,4.0,4.5,24,0.00,,---,0.00,VWS V14.01,2013-03-26 04:44:00,
2013-03-26 00:49:00,58.6,22.9,30.12,WNW,289,2.2,2.2,25,0.00,,---,0.00,VWS V14.01,2013-03-26 04:49:00,
2013-03-26 00:54:00,58.3,22.6,30.12,WNW,289,8.3,8.3,25,0.00,,---,0.00,VWS V14.01,2013-03-26 04:54:00,
2013-03-26 00:59:00,58.3,22.6,30.12,WNW,297,3.6,3.6,25,0.00,,---,0.00,VWS V14.01,2013-03-26 04:59:00,
2013-03-26 01:04:00,58.1,22.5,30.12,WNW,284,7.6,7.6,25,0.00,,---,0.00,VWS V14.01,2013-03-26 05:04:00,
2013-03-26 01:09:00,58.3,22.6,30.12,WNW,286,3.6,3.6,25,0.00,,---,0.00,VWS V14.01,2013-03-26 05:09:00,
2013-03-26 01:15:00,58.1,22.5,30.12,WNW,285,4.9,5.8,25,0.00,,---,0.00,VWS V14.01,2013-03-26 05:15:00,
2013-03-26 01:20:00,58.1,22.5,30.12,WNW,288,4.0,4.0,25,0.00,,---,0.00,VWS V14.01,2013-03-26 05:20:00,
2013-03-26 01:25:00,57.7,22.2,30.12,West,281,2.7,2.7,25,0.00,,---,0.00,VWS V14.01,2013-03-26 05:25:00,
2013-03-26 01:30:00,57.4,21.9,30.12,West,263,3.6,3.6,25,0.00,,---,0.00,VWS V14.01,2013-03-26 05:30:00,
2013-03-26 01:36:00,56.8,21.4,30.12,WNW,292,4.0,4.0,25,0.00,,---,0.00,VWS V14.01,2013-03-26 05:36:00,
2013-03-26 01:41:00,56.7,22.2,30.12,WNW,286,4.0,4.0,26,0.00,,---,0.00,VWS V14.01,2013-03-26 05:41:00,
2013-03-26 01:46:00,57.0,22.5,30.12,WNW,297,5.4,5.4,26,0.00,,---,0.00,VWS V14.01,2013-03-26 05:46:00,
2013-03-26 01:51:00,56.8,22.3,30.12,WNW,290,2.7,2.7,26,0.00,,---,0.00,VWS V14.01,2013-03-26 05:51:00,
2013-03-26 01:56:00,57.2,22.6,30.12,North,353,3.6,3.6,26,0.00,,---,0.00,VWS V14.01,2013-03-26 05:56:00,
2013-03-26 02:01:00,57.4,22.8,30.12,WSW,241,4.0,5.4,26,0.00,,---,0.00,VWS V14.01,2013-03-26 06:01:00,
2013-03-26 02:06:00,57.4,22.8,30.12,NW,312,5.4,5.4,26,0.00,,---,0.00,VWS V14.01,2013-03-26 06:06:00,
2013-03-26 02:12:00,57.2,22.6,30.12,WNW,303,4.0,4.0,26,0.00,,---,0.00,VWS V14.01,2013-03-26 06:12:00,
2013-03-26 02:17:00,56.8,23.2,30.12,WNW,286,2.7,2.7,27,0.00,,---,0.00,VWS V14.01,2013-03-26 06:17:00,
2013-03-26 02:22:00,56.5,22.9,30.12,WSW,248,7.2,7.2,27,0.00,,---,0.00,VWS V14.01,2013-03-26 06:22:00,
2013-03-26 02:27:00,56.3,22.8,30.12,WNW,299,5.4,5.4,27,0.00,,---,0.00,VWS V14.01,2013-03-26 06:27:00,
2013-03-26 02:32:00,55.9,23.3,30.12,WNW,286,6.3,6.3,28,0.00,,---,0.00,VWS V14.01,2013-03-26 06:32:00,
2013-03-26 02:37:00,55.6,23.0,30.09,West,281,3.6,4.9,28,0.00,,---,0.00,VWS V14.01,2013-03-26 06:37:00,
2013-03-26 02:42:00,55.0,24.2,30.09,WNW,300,4.0,4.0,30,0.00,,---,0.00,VWS V14.01,2013-03-26 06:42:00,
2013-03-26 02:48:00,54.5,24.5,30.09,NNW,327,3.1,6.3,31,0.00,,---,0.00,VWS V14.01,2013-03-26 06:48:00,
2013-03-26 02:53:00,54.1,27.1,30.12,WNW,284,4.0,4.0,35,0.00,,---,0.00,VWS V14.01,2013-03-26 06:53:00,
2013-03-26 02:58:00,54.0,27.6,30.12,West,274,3.6,5.8,36,0.00,,---,0.00,VWS V14.01,2013-03-26 06:58:00,
2013-03-26 03:03:00,54.1,27.8,30.12,WNW,286,3.1,4.0,36,0.00,,---,0.00,VWS V14.01,2013-03-26 07:03:00,
2013-03-26 03:08:00,53.8,27.5,30.09,WNW,295,3.6,4.9,36,0.00,,---,0.00,VWS V14.01,2013-03-26 07:08:00,
2013-03-26 03:14:00,53.8,28.1,30.09,SW,234,3.6,3.6,37,0.00,,---,0.00,VWS V14.01,2013-03-26 07:14:00,
2013-03-26 03:19:00,54.1,28.5,30.09,NNW,342,4.0,4.0,37,0.00,,---,0.00,VWS V14.01,2013-03-26 07:19:00,
2013-03-26 03:24:00,54.1,28.5,30.12,WNW,292,3.6,6.3,37,0.00,,---,0.00,VWS V14.01,2013-03-26 07:24:00,
2013-03-26 03:29:00,54.7,28.3,30.12,NNW,335,2.2,3.1,36,0.00,,---,0.00,VWS V14.01,2013-03-26 07:29:00,
2013-03-26 03:34:00,55.0,27.9,30.12,WNW,293,5.4,5.4,35,0.00,,---,0.00,VWS V14.01,2013-03-26 07:34:00,
2013-03-26 03:39:00,55.8,27.8,30.09,North,357,3.1,3.1,34,0.00,,---,0.00,VWS V14.01,2013-03-26 07:39:00,
2013-03-26 03:44:00,56.8,25.8,30.09,NW,306,3.1,3.6,30,0.00,,---,0.00,VWS V14.01,2013-03-26 07:44:00,
2013-03-26 03:49:00,56.8,24.9,30.09,WNW,298,5.4,5.4,29,0.00,,---,0.00,VWS V14.01,2013-03-26 07:49:00,
2013-03-26 03:55:00,56.8,24.9,30.12,WNW,292,5.4,5.8,29,0.00,,---,0.00,VWS V14.01,2013-03-26 07:55:00,
2013-03-26 04:00:00,56.7,24.8,30.12,NW,324,4.0,8.1,29,0.00,,---,0.00,VWS V14.01,2013-03-26 08:00:00,
2013-03-26 04:05:00,56.8,24.9,30.12,NW,318,5.4,7.6,29,0.00,,---,0.00,VWS V14.01,2013-03-26 08:05:00,
2013-03-26 04:10:00,56.8,24.9,30.09,North,357,6.3,6.3,29,0.00,,---,0.00,VWS V14.01,2013-03-26 08:10:00,
2013-03-26 04:15:00,57.0,25.9,30.09,NW,322,5.4,5.4,30,0.00,,---,0.00,VWS V14.01,2013-03-26 08:15:00,
2013-03-26 04:20:00,57.2,25.2,30.09,West,277,3.6,6.3,29,0.00,,---,0.00,VWS V14.01,2013-03-26 08:20:00,
2013-03-26 04:25:00,57.2,24.4,30.12,NNW,338,5.4,11.0,28,0.00,,---,0.00,VWS V14.01,2013-03-26 08:25:00,
2013-03-26 04:30:00,57.0,24.3,30.12,NW,319,7.6,7.6,28,0.00,,---,0.00,VWS V14.01,2013-03-26 08:30:00,
2013-03-26 04:35:00,56.5,24.6,30.12,NW,314,4.0,4.0,29,0.00,,---,0.00,VWS V14.01,2013-03-26 08:35:00,
2013-03-26 04:40:00,56.5,25.4,30.12,NW,314,2.7,5.4,30,0.00,,---,0.00,VWS V14.01,2013-03-26 08:40:00,
2013-03-26 04:45:00,56.3,24.5,30.12,NW,311,6.3,6.3,29,0.00,,---,0.00,VWS V14.01,2013-03-26 08:45:00,
2013-03-26 04:50:00,56.7,24.8,30.12,West,279,4.5,4.5,29,0.00,,---,0.00,VWS V14.01,2013-03-26 08:50:00,
2013-03-26 04:55:00,56.5,25.4,30.12,WNW,282,3.1,3.6,30,0.00,,---,0.00,VWS V14.01,2013-03-26 08:55:00,
2013-03-26 05:00:00,56.3,26.1,30.12,NW,306,5.8,5.8,31,0.00,,---,0.00,VWS V14.01,2013-03-26 09:00:00,
2013-03-26 05:05:00,56.5,25.4,30.12,NW,313,4.9,5.8,30,0.00,,---,0.00,VWS V14.01,2013-03-26 09:05:00,
2013-03-26 05:10:00,56.7,25.6,30.12,North,349,5.4,6.3,30,0.00,,---,0.00,VWS V14.01,2013-03-26 09:10:00,
2013-03-26 05:15:00,56.7,25.6,30.12,NNW,328,6.3,6.3,30,0.00,,---,0.00,VWS V14.01,2013-03-26 09:15:00,
2013-03-26 05:21:00,57.6,23.9,30.12,North,0,6.7,7.6,27,0.00,,---,0.00,VWS V14.01,2013-03-26 09:21:00,
2013-03-26 05:26:00,57.6,23.9,30.12,WNW,303,6.3,6.7,27,0.00,,---,0.00,VWS V14.01,2013-03-26 09:26:00,
2013-03-26 05:31:00,57.6,23.9,30.12,NW,324,4.0,4.0,27,0.00,,---,0.00,VWS V14.01,2013-03-26 09:31:00,
2013-03-26 05:36:00,57.6,24.7,30.12,NW,318,7.6,7.6,28,0.00,,---,0.00,VWS V14.01,2013-03-26 09:36:00,
2013-03-26 05:41:00,57.6,23.9,30.12,NW,326,2.7,5.4,27,0.00,,---,0.00,VWS V14.01,2013-03-26 09:41:00,
2013-03-26 05:46:00,57.6,23.9,30.12,NW,324,5.4,5.4,27,0.00,,---,0.00,VWS V14.01,2013-03-26 09:46:00,
2013-03-26 05:52:00,57.6,23.9,30.12,NNW,344,5.8,8.3,27,0.00,,---,0.00,VWS V14.01,2013-03-26 09:52:00,
2013-03-26 05:57:00,57.6,23.0,30.12,North,357,4.9,8.1,26,0.00,,---,0.00,VWS V14.01,2013-03-26 09:57:00,
2013-03-26 06:02:00,57.6,23.9,30.12,North,353,7.6,8.1,27,0.00,,---,0.00,VWS V14.01,2013-03-26 10:02:00,
2013-03-26 06:07:00,57.4,22.8,30.12,NNW,335,10.1,10.1,26,0.00,,---,0.00,VWS V14.01,2013-03-26 10:07:00,
2013-03-26 06:12:00,57.4,23.7,30.12,North,353,6.3,7.2,27,0.00,,---,0.00,VWS V14.01,2013-03-26 10:12:00,
2013-03-26 06:17:00,57.2,23.5,30.12,North,349,8.7,8.7,27,0.00,,---,0.00,VWS V14.01,2013-03-26 10:17:00,
2013-03-26 06:23:00,57.2,24.4,30.15,NW,312,5.4,7.6,28,0.00,,---,0.00,VWS V14.01,2013-03-26 10:23:00,
2013-03-26 06:28:00,57.0,24.3,30.15,SSW,205,2.7,5.8,28,0.00,,---,0.00,VWS V14.01,2013-03-26 10:28:00,
2013-03-26 06:33:00,56.8,23.2,30.15,NNW,346,9.2,9.2,27,0.00,,---,0.00,VWS V14.01,2013-03-26 10:33:00,
2013-03-26 06:38:00,56.8,23.2,30.15,North,357,4.0,4.0,27,0.00,,---,0.00,VWS V14.01,2013-03-26 10:38:00,
2013-03-26 06:43:00,56.8,23.2,30.15,North,349,5.8,5.8,27,0.00,,---,0.00,VWS V14.01,2013-03-26 10:43:00,
2013-03-26 06:49:00,56.7,23.1,30.15,WNW,283,3.6,5.8,27,0.00,,---,0.00,VWS V14.01,2013-03-26 10:49:00,
2013-03-26 06:54:00,56.3,23.6,30.15,NNW,344,7.6,7.6,28,0.00,,---,0.00,VWS V14.01,2013-03-26 10:54:00,
2013-03-26 06:59:00,55.9,22.5,30.15,North,353,4.0,8.1,27,0.00,,---,0.00,VWS V14.01,2013-03-26 10:59:00,
2013-03-26 07:04:00,55.9,22.5,30.15,North,353,3.6,5.8,27,0.00,,---,0.00,VWS V14.01,2013-03-26 11:04:00,
2013-03-26 07:09:00,55.6,22.1,30.15,WNW,286,2.7,3.6,27,0.00,,---,0.00,VWS V14.01,2013-03-26 11:09:00,
2013-03-26 07:15:00,55.2,23.5,30.15,NNW,338,3.6,4.9,29,0.00,,---,0.00,VWS V14.01,2013-03-26 11:15:00,
2013-03-26 07:20:00,54.5,22.1,30.15,NNW,344,4.0,4.0,28,0.00,,---,0.00,VWS V14.01,2013-03-26 11:20:00,
2013-03-26 07:25:00,54.5,22.9,30.15,NW,310,2.7,2.7,29,0.00,,---,0.00,VWS V14.01,2013-03-26 11:25:00,
2013-03-26 07:30:00,54.5,22.9,30.15,West,266,3.6,3.6,29,0.00,,---,0.00,VWS V14.01,2013-03-26 11:30:00,
2013-03-26 07:35:00,54.7,23.1,30.15,NNW,345,7.6,7.6,29,0.00,,---,0.00,VWS V14.01,2013-03-26 11:35:00,
2013-03-26 07:40:00,54.9,23.2,30.15,NNW,335,5.4,6.3,29,0.00,,---,0.00,VWS V14.01,2013-03-26 11:40:00,
2013-03-26 07:45:00,55.0,22.5,30.15,WNW,289,2.7,2.7,28,0.00,,---,0.00,VWS V14.01,2013-03-26 11:45:00,
2013-03-26 07:51:00,55.2,22.7,30.15,NW,324,3.1,6.7,28,0.00,,---,0.00,VWS V14.01,2013-03-26 11:51:00,
2013-03-26 07:56:00,55.2,22.7,30.18,NW,304,2.7,2.7,28,0.00,,---,0.00,VWS V14.01,2013-03-26 11:56:00,
2013-03-26 08:01:00,55.0,22.5,30.18,WNW,299,4.0,5.8,28,0.00,,---,0.00,VWS V14.01,2013-03-26 12:01:00,
2013-03-26 08:06:00,55.2,22.7,30.18,NNW,342,5.4,5.4,28,0.00,,---,0.00,VWS V14.01,2013-03-26 12:06:00,
2013-03-26 08:11:00,55.8,22.3,30.18,NNW,327,3.6,3.6,27,0.00,,---,0.00,VWS V14.01,2013-03-26 12:11:00,
2013-03-26 08:16:00,56.1,22.6,30.18,WNW,299,3.1,3.1,27,0.00,,---,0.00,VWS V14.01,2013-03-26 12:16:00,
2013-03-26 08:21:00,56.5,22.9,30.18,NNW,342,2.7,3.6,27,0.00,,---,0.00,VWS V14.01,2013-03-26 12:21:00,
2013-03-26 08:26:00,56.7,22.2,30.18,NNW,343,3.1,5.4,26,0.00,,---,0.00,VWS V14.01,2013-03-26 12:26:00,
2013-03-26 08:32:00,56.5,22.0,30.18,NW,316,3.1,4.9,26,0.00,,---,0.00,VWS V14.01,2013-03-26 12:32:00,
2013-03-26 08:37:00,56.7,22.2,30.18,NNW,346,5.4,5.4,26,0.00,,---,0.00,VWS V14.01,2013-03-26 12:37:00,
2013-03-26 08:42:00,58.1,22.5,30.18,NW,320,5.4,5.4,25,0.00,,---,0.00,VWS V14.01,2013-03-26 12:42:00,
2013-03-26 08:47:00,59.4,22.6,30.18,North,353,6.3,6.3,24,0.00,,---,0.00,VWS V14.01,2013-03-26 12:47:00,
2013-03-26 08:52:00,61.7,24.6,30.18,North,357,3.6,4.0,24,0.00,,---,0.00,VWS V14.01,2013-03-26 12:52:00,
2013-03-26 08:57:00,62.8,22.3,30.18,North,353,4.9,4.9,21,0.00,,---,0.00,VWS V14.01,2013-03-26 12:57:00,
2013-03-26 09:02:00,61.5,21.2,30.18,SW,234,4.9,5.8,21,0.00,,---,0.00,VWS V14.01,2013-03-26 13:02:00,
2013-03-26 09:07:00,60.4,21.4,30.21,NNW,341,5.4,5.8,22,0.00,,---,0.00,VWS V14.01,2013-03-26 13:07:00,
2013-03-26 09:13:00,59.7,20.8,30.21,WNW,294,2.7,5.4,22,0.00,,---,0.00,VWS V14.01,2013-03-26 13:13:00,
2013-03-26 09:18:00,60.6,21.6,30.21,NNE,14,8.3,8.3,22,0.00,,---,0.00,VWS V14.01,2013-03-26 13:18:00,
2013-03-26 09:23:00,60.4,21.4,30.21,NNW,344,3.6,7.6,22,0.00,,---,0.00,VWS V14.01,2013-03-26 13:23:00,
2013-03-26 09:28:00,61.3,21.1,30.21,North,0,4.0,6.3,21,0.00,,---,0.00,VWS V14.01,2013-03-26 13:28:00,
2013-03-26 09:33:00,60.6,21.6,30.21,NNW,333,8.3,8.3,22,0.00,,---,0.00,VWS V14.01,2013-03-26 13:33:00,
2013-03-26 09:39:00,63.0,22.5,30.21,North,353,4.0,4.0,21,0.00,,---,0.00,VWS V14.01,2013-03-26 13:39:00,
2013-03-26 09:44:00,65.1,20.6,30.21,North,349,6.3,7.6,18,0.00,,---,0.00,VWS V14.01,2013-03-26 13:44:00,
2013-03-26 09:49:00,66.0,21.3,30.21,NNW,345,8.1,8.1,18,0.00,,---,0.00,VWS V14.01,2013-03-26 13:49:00,
2013-03-26 09:54:00,65.5,20.9,30.21,NW,312,6.7,6.7,18,0.00,,---,0.00,VWS V14.01,2013-03-26 13:54:00,
2013-03-26 10:00:00,66.0,21.3,30.21,WSW,238,6.3,6.3,18,0.00,,---,0.00,VWS V14.01,2013-03-26 14:00:00,
2013-03-26 10:05:00,66.9,20.7,30.21,NNW,327,5.4,5.4,17,0.00,,---,0.00,VWS V14.01,2013-03-26 14:05:00,
2013-03-26 10:10:00,67.8,21.5,30.21,WNW,288,7.6,7.6,17,0.00,,---,0.00,VWS V14.01,2013-03-26 14:10:00,
2013-03-26 10:15:00,66.4,20.3,30.21,NNW,342,6.3,7.6,17,0.00,,---,0.00,VWS V14.01,2013-03-26 14:15:00,
2013-03-26 10:20:00,66.2,20.1,30.21,North,6,5.8,6.3,17,0.00,,---,0.00,VWS V14.01,2013-03-26 14:20:00,
2013-03-26 10:25:00,65.8,21.2,30.21,NW,325,5.4,8.1,18,0.00,,---,0.00,VWS V14.01,2013-03-26 14:25:00,
2013-03-26 10:31:00,66.2,20.1,30.21,North,353,8.7,8.7,17,0.00,,---,0.00,VWS V14.01,2013-03-26 14:31:00,
2013-03-26 10:36:00,67.6,21.3,30.21,WSW,248,5.8,8.3,17,0.00,,---,0.00,VWS V14.01,2013-03-26 14:36:00,
2013-03-26 10:41:00,68.4,21.9,30.21,WNW,294,5.4,5.4,17,0.00,,---,0.00,VWS V14.01,2013-03-26 14:41:00,
2013-03-26 10:46:00,69.1,22.5,30.21,NW,306,5.8,10.1,17,0.00,,---,0.00,VWS V14.01,2013-03-26 14:46:00,
2013-03-26 10:51:00,67.5,21.2,30.21,WNW,285,5.8,5.8,17,0.00,,---,0.00,VWS V14.01,2013-03-26 14:51:00,
2013-03-26 10:56:00,69.8,23.1,30.21,NNW,345,4.0,5.8,17,0.00,,---,0.00,VWS V14.01,2013-03-26 14:56:00,
2013-03-26 11:01:00,68.4,21.9,30.21,NNW,333,4.0,4.0,17,0.00,,---,0.00,VWS V14.01,2013-03-26 15:01:00,
2013-03-26 11:06:00,68.2,21.7,30.21,North,349,6.3,6.3,17,0.00,,---,0.00,VWS V14.01,2013-03-26 15:06:00,
2013-03-26 11:11:00,66.6,20.4,30.21,NNW,342,5.8,12.3,17,0.00,,---,0.00,VWS V14.01,2013-03-26 15:11:00,
2013-03-26 11:16:00,68.2,21.7,30.21,WNW,283,7.6,7.6,17,0.00,,---,0.00,VWS V14.01,2013-03-26 15:16:00,
2013-03-26 11:21:00,70.0,23.2,30.21,West,268,5.8,8.1,17,0.00,,---,0.00,VWS V14.01,2013-03-26 15:21:00,
2013-03-26 11:27:00,70.0,23.2,30.21,WNW,302,3.1,8.1,17,0.00,,---,0.00,VWS V14.01,2013-03-26 15:27:00,
2013-03-26 11:32:00,69.8,23.1,30.21,NNW,327,5.4,7.6,17,0.00,,---,0.00,VWS V14.01,2013-03-26 15:32:00,
2013-03-26 11:37:00,71.2,24.2,30.21,NNW,339,6.7,6.7,17,0.00,,---,0.00,VWS V14.01,2013-03-26 15:37:00,
2013-03-26 11:42:00,71.2,24.2,30.21,NNW,339,6.3,6.3,17,0.00,,---,0.00,VWS V14.01,2013-03-26 15:42:00,
2013-03-26 11:47:00,70.5,23.6,30.21,West,259,11.0,11.0,17,0.00,,---,0.00,VWS V14.01,2013-03-26 15:47:00,
2013-03-26 11:53:00,70.2,23.4,30.21,West,272,5.4,5.4,17,0.00,,---,0.00,VWS V14.01,2013-03-26 15:53:00,
2013-03-26 11:58:00,67.5,21.2,30.21,West,276,6.3,6.3,17,0.00,,---,0.00,VWS V14.01,2013-03-26 15:58:00,
2013-03-26 12:03:00,69.6,22.9,30.21,NNW,330,8.3,8.3,17,0.00,,---,0.00,VWS V14.01,2013-03-26 16:03:00,
2013-03-26 12:08:00,68.4,21.9,30.21,North,0,5.4,11.0,17,0.00,,---,0.00,VWS V14.01,2013-03-26 16:08:00,
2013-03-26 12:13:00,70.3,23.5,30.21,North,357,8.3,8.3,17,0.00,,---,0.00,VWS V14.01,2013-03-26 16:13:00,
2013-03-26 12:18:00,71.8,23.2,30.21,WNW,296,3.6,6.3,16,0.00,,---,0.00,VWS V14.01,2013-03-26 16:18:00,
2013-03-26 12:23:00,72.0,23.4,30.21,West,279,6.3,6.3,16,0.00,,---,0.00,VWS V14.01,2013-03-26 16:23:00,
2013-03-26 12:28:00,70.2,23.4,30.21,North,2,5.4,5.4,17,0.00,,---,0.00,VWS V14.01,2013-03-26 16:28:00,
2013-03-26 12:34:00,67.6,21.3,30.21,NW,305,5.4,6.3,17,0.00,,---,0.00,VWS V14.01,2013-03-26 16:34:00,
2013-03-26 12:39:00,67.5,21.2,30.21,NW,326,4.9,5.8,17,0.00,,---,0.00,VWS V14.01,2013-03-26 16:39:00,
2013-03-26 12:44:00,68.5,22.0,30.21,WNW,296,6.3,7.2,17,0.00,,---,0.00,VWS V14.01,2013-03-26 16:44:00,
2013-03-26 12:49:00,69.3,22.6,30.21,North,5,8.1,8.1,17,0.00,,---,0.00,VWS V14.01,2013-03-26 16:49:00,
2013-03-26 12:55:00,70.5,23.6,30.21,NW,326,7.6,8.7,17,0.00,,---,0.00,VWS V14.01,2013-03-26 16:55:00,
2013-03-26 13:00:00,70.0,23.2,30.21,NW,320,5.4,6.3,17,0.00,,---,0.00,VWS V14.01,2013-03-26 17:00:00,
2013-03-26 13:05:00,70.7,23.8,30.21,NW,311,4.9,5.8,17,0.00,,---,0.00,VWS V14.01,2013-03-26 17:05:00,
2013-03-26 13:10:00,72.0,23.4,30.21,NW,306,6.3,6.3,16,0.00,,---,0.00,VWS V14.01,2013-03-26 17:10:00,
2013-03-26 13:15:00,71.2,24.2,30.21,NNW,345,8.7,8.7,17,0.00,,---,0.00,VWS V14.01,2013-03-26 17:15:00,
2013-03-26 13:20:00,71.6,23.1,30.21,NW,315,7.2,7.2,16,0.00,,---,0.00,VWS V14.01,2013-03-26 17:20:00,
2013-03-26 13:26:00,71.8,23.2,30.21,North,357,6.3,7.6,16,0.00,,---,0.00,VWS V14.01,2013-03-26 17:26:00,
2013-03-26 13:31:00,74.7,25.5,30.21,NNW,340,7.6,7.6,16,0.00,,---,0.00,VWS V14.01,2013-03-26 17:31:00,
2013-03-26 13:36:00,70.7,23.8,30.21,WNW,282,8.3,8.3,17,0.00,,---,0.00,VWS V14.01,2013-03-26 17:36:00,
2013-03-26 13:41:00,70.2,23.4,30.21,NW,326,8.1,8.1,17,0.00,,---,0.00,VWS V14.01,2013-03-26 17:41:00,
2013-03-26 13:46:00,72.5,23.8,30.21,WNW,302,4.9,4.9,16,0.00,,---,0.00,VWS V14.01,2013-03-26 17:46:00,
2013-03-26 13:51:00,75.6,24.7,30.21,NNW,331,5.4,5.4,15,0.00,,---,0.00,VWS V14.01,2013-03-26 17:51:00,
2013-03-26 13:56:00,74.3,25.2,30.21,NNE,29,8.7,8.7,16,0.00,,---,0.00,VWS V14.01,2013-03-26 17:56:00,
2013-03-26 14:01:00,72.7,23.9,30.21,West,275,3.6,6.3,16,0.00,,---,0.00,VWS V14.01,2013-03-26 18:01:00,
2013-03-26 14:06:00,72.7,23.9,30.21,NNW,339,2.7,8.7,16,0.00,,---,0.00,VWS V14.01,2013-03-26 18:06:00,
2013-03-26 14:12:00,73.2,24.4,30.18,West,278,3.1,5.4,16,0.00,,---,0.00,VWS V14.01,2013-03-26 18:12:00,
2013-03-26 14:17:00,70.7,23.8,30.18,North,353,13.2,13.2,17,0.00,,---,0.00,VWS V14.01,2013-03-26 18:17:00,
2013-03-26 14:22:00,71.4,24.4,30.18,NNW,335,4.0,4.0,17,0.00,,---,0.00,VWS V14.01,2013-03-26 18:22:00,
2013-03-26 14:27:00,71.1,24.1,30.18,North,11,4.9,8.3,17,0.00,,---,0.00,VWS V14.01,2013-03-26 18:27:00,
2013-03-26 14:32:00,73.8,24.8,30.18,WNW,283,4.0,4.0,16,0.00,,---,0.00,VWS V14.01,2013-03-26 18:32:00,
2013-03-26 14:37:00,70.9,23.9,30.18,NW,308,5.4,7.6,17,0.00,,---,0.00,VWS V14.01,2013-03-26 18:37:00,
2013-03-26 14:42:00,73.4,24.5,30.18,West,265,4.0,7.6,16,0.00,,---,0.00,VWS V14.01,2013-03-26 18:42:00,
2013-03-26 14:48:00,71.1,24.1,30.18,NE,37,7.6,7.6,17,0.00,,---,0.00,VWS V14.01,2013-03-26 18:48:00,
2013-03-26 14:53:00,73.0,24.2,30.18,NW,306,5.4,8.1,16,0.00,,---,0.00,VWS V14.01,2013-03-26 18:53:00,
2013-03-26 14:58:00,73.2,24.4,30.18,West,262,7.6,7.6,16,0.00,,---,0.00,VWS V14.01,2013-03-26 18:58:00,
2013-03-26 15:03:00,72.9,24.1,30.18,NW,313,5.8,5.8,16,0.00,,---,0.00,VWS V14.01,2013-03-26 19:03:00,
2013-03-26 15:09:00,74.1,25.1,30.18,WNW,288,10.5,10.5,16,0.00,,---,0.00,VWS V14.01,2013-03-26 19:09:00,
2013-03-26 15:14:00,73.6,24.7,30.18,WNW,284,5.4,6.3,16,0.00,,---,0.00,VWS V14.01,2013-03-26 19:14:00,
2013-03-26 15:19:00,74.7,25.5,30.18,WNW,296,12.3,12.3,16,0.00,,---,0.00,VWS V14.01,2013-03-26 19:19:00,
2013-03-26 15:24:00,75.2,24.4,30.18,NW,307,3.1,8.1,15,0.00,,---,0.00,VWS V14.01,2013-03-26 19:24:00,
2013-03-26 15:29:00,74.5,25.4,30.18,NW,304,6.3,6.3,16,0.00,,---,0.00,VWS V14.01,2013-03-26 19:29:00,
2013-03-26 15:34:00,74.7,25.5,30.18,NNW,333,6.3,6.3,16,0.00,,---,0.00,VWS V14.01,2013-03-26 19:34:00,
2013-03-26 15:40:00,72.3,23.6,30.18,WNW,289,6.3,7.6,16,0.00,,---,0.00,VWS V14.01,2013-03-26 19:40:00,
2013-03-26 15:45:00,72.7,23.9,30.18,North,357,3.1,10.5,16,0.00,,---,0.00,VWS V14.01,2013-03-26 19:45:00,
2013-03-26 15:50:00,74.7,25.5,30.18,WNW,298,6.3,6.3,16,0.00,,---,0.00,VWS V14.01,2013-03-26 19:50:00,
2013-03-26 15:55:00,72.9,24.1,30.18,West,271,4.0,5.4,16,0.00,,---,0.00,VWS V14.01,2013-03-26 19:55:00,
2013-03-26 16:00:00,75.7,24.9,30.18,West,278,4.0,7.6,15,0.00,,---,0.00,VWS V14.01,2013-03-26 20:00:00,
2013-03-26 16:05:00,74.7,25.5,30.18,WNW,287,4.0,4.0,16,0.00,,---,0.00,VWS V14.01,2013-03-26 20:05:00,
2013-03-26 16:10:00,73.2,24.4,30.18,WNW,290,11.0,11.0,16,0.00,,---,0.00,VWS V14.01,2013-03-26 20:10:00,
2013-03-26 16:15:00,73.2,24.4,30.18,West,281,4.9,6.3,16,0.00,,---,0.00,VWS V14.01,2013-03-26 20:15:00,
2013-03-26 16:20:00,71.4,24.4,30.18,West,265,7.2,8.7,17,0.00,,---,0.00,VWS V14.01,2013-03-26 20:20:00,
2013-03-26 16:26:00,74.5,25.4,30.18,WNW,289,4.9,5.4,16,0.00,,---,0.00,VWS V14.01,2013-03-26 20:26:00,
2013-03-26 16:31:00,74.7,25.5,30.18,WSW,248,3.6,6.3,16,0.00,,---,0.00,VWS V14.01,2013-03-26 20:31:00,
2013-03-26 16:37:00,74.3,25.2,30.18,WSW,252,5.4,5.4,16,0.00,,---,0.00,VWS V14.01,2013-03-26 20:37:00,
2013-03-26 16:42:00,74.8,25.7,30.18,West,269,8.7,8.7,16,0.00,,---,0.00,VWS V14.01,2013-03-26 20:42:00,
2013-03-26 16:47:00,72.5,23.8,30.18,WNW,290,10.1,10.1,16,0.00,,---,0.00,VWS V14.01,2013-03-26 20:47:00,
2013-03-26 16:52:00,73.2,24.4,30.18,NW,318,5.8,8.1,16,0.00,,---,0.00,VWS V14.01,2013-03-26 20:52:00,
2013-03-26 16:58:00,72.0,23.4,30.18,North,353,8.7,8.7,16,0.00,,---,0.00,VWS V14.01,2013-03-26 20:58:00,
2013-03-26 17:03:00,70.7,23.8,30.18,NW,325,9.6,9.6,17,0.00,,---,0.00,VWS V14.01,2013-03-26 21:03:00,
2013-03-26 17:08:00,70.7,23.8,30.18,WNW,293,12.8,12.8,17,0.00,,---,0.00,VWS V14.01,2013-03-26 21:08:00,
2013-03-26 17:13:00,71.1,24.1,30.18,NW,304,5.8,5.8,17,0.00,,---,0.00,VWS V14.01,2013-03-26 21:13:00,
2013-03-26 17:18:00,72.0,23.4,30.18,WNW,291,7.6,7.6,16,0.00,,---,0.00,VWS V14.01,2013-03-26 21:18:00,
2013-03-26 17:24:00,69.1,22.5,30.18,NW,307,8.1,8.7,17,0.00,,---,0.00,VWS V14.01,2013-03-26 21:24:00,
2013-03-26 17:29:00,72.7,23.9,30.18,NNW,344,5.4,6.3,16,0.00,,---,0.00,VWS V14.01,2013-03-26 21:29:00,
2013-03-26 17:34:00,69.6,22.9,30.18,North,349,10.5,10.5,17,0.00,,---,0.00,VWS V14.01,2013-03-26 21:34:00,
2013-03-26 17:39:00,71.1,24.1,30.18,WNW,292,7.6,11.0,17,0.00,,---,0.00,VWS V14.01,2013-03-26 21:39:00,
2013-03-26 17:45:00,69.6,22.9,30.18,NW,313,3.1,8.3,17,0.00,,---,0.00,VWS V14.01,2013-03-26 21:45:00,
2013-03-26 17:50:00,70.2,23.4,30.18,WNW,292,5.4,8.3,17,0.00,,---,0.00,VWS V14.01,2013-03-26 21:50:00,
2013-03-26 17:55:00,70.0,23.2,30.18,West,274,3.6,5.4,17,0.00,,---,0.00,VWS V14.01,2013-03-26 21:55:00,
2013-03-26 18:00:00,70.0,23.2,30.18,NW,316,6.3,6.3,17,0.00,,---,0.00,VWS V14.01,2013-03-26 22:00:00,
2013-03-26 18:05:00,68.4,21.9,30.18,NW,305,5.4,5.4,17,0.00,,---,0.00,VWS V14.01,2013-03-26 22:05:00,
2013-03-26 18:10:00,68.9,22.3,30.18,WNW,295,4.0,5.8,17,0.00,,---,0.00,VWS V14.01,2013-03-26 22:10:00,
2013-03-26 18:16:00,68.2,21.7,30.18,West,281,8.7,11.0,17,0.00,,---,0.00,VWS V14.01,2013-03-26 22:16:00,
2013-03-26 18:21:00,66.7,20.6,30.18,NNW,341,3.6,5.8,17,0.00,,---,0.00,VWS V14.01,2013-03-26 22:21:00,
2013-03-26 18:26:00,67.3,21.0,30.18,NNW,330,5.8,5.8,17,0.00,,---,0.00,VWS V14.01,2013-03-26 22:26:00,
2013-03-26 18:32:00,67.3,21.0,30.18,West,277,6.3,6.3,17,0.00,,---,0.00,VWS V14.01,2013-03-26 22:32:00,
2013-03-26 18:37:00,66.6,20.4,30.18,West,267,6.7,6.7,17,0.00,,---,0.00,VWS V14.01,2013-03-26 22:37:00,
2013-03-26 18:42:00,65.7,21.0,30.18,WNW,288,10.1,10.5,18,0.00,,---,0.00,VWS V14.01,2013-03-26 22:42:00,
2013-03-26 18:47:00,64.8,20.3,30.18,WNW,286,7.2,7.2,18,0.00,,---,0.00,VWS V14.01,2013-03-26 22:47:00,
2013-03-26 18:52:00,64.6,20.1,30.18,NNW,343,6.3,6.3,18,0.00,,---,0.00,VWS V14.01,2013-03-26 22:52:00,
2013-03-26 18:57:00,63.3,19.1,30.18,WNW,299,8.1,8.1,18,0.00,,---,0.00,VWS V14.01,2013-03-26 22:57:00,
2013-03-26 19:02:00,62.1,19.3,30.18,WNW,282,5.4,5.4,19,0.00,,---,0.00,VWS V14.01,2013-03-26 23:02:00,
2013-03-26 19:08:00,61.2,18.6,30.18,NNW,334,3.1,3.1,19,0.00,,---,0.00,VWS V14.01,2013-03-26 23:08:00,
2013-03-26 19:13:00,60.4,18.0,30.21,WNW,297,4.5,5.8,19,0.00,,---,0.00,VWS V14.01,2013-03-26 23:13:00,
2013-03-26 19:18:00,60.3,17.9,30.21,WNW,289,6.3,8.3,19,0.00,,---,0.00,VWS V14.01,2013-03-26 23:18:00,
2013-03-26 19:23:00,59.5,17.3,30.21,WNW,302,3.6,4.0,19,0.00,,---,0.00,VWS V14.01,2013-03-26 23:23:00,
2013-03-26 19:28:00,59.4,17.1,30.21,WNW,292,3.6,8.1,19,0.00,,---,0.00,VWS V14.01,2013-03-26 23:28:00,
2013-03-26 19:34:00,58.6,16.5,30.21,WNW,298,3.1,3.1,19,0.00,,---,0.00,VWS V14.01,2013-03-26 23:34:00,
2013-03-26 19:39:00,58.3,16.2,30.21,WNW,300,7.2,7.2,19,0.00,,---,0.00,VWS V14.01,2013-03-26 23:39:00,
2013-03-26 19:44:00,57.7,15.8,30.21,WNW,301,4.9,4.9,19,0.00,,---,0.00,VWS V14.01,2013-03-26 23:44:00,
2013-03-26 19:49:00,57.6,15.6,30.21,WNW,301,5.8,5.8,19,0.00,,---,0.00,VWS V14.01,2013-03-26 23:49:00,
2013-03-26 19:54:00,57.2,15.3,30.24,WNW,285,6.7,6.7,19,0.00,,---,0.00,VWS V14.01,2013-03-26 23:54:00,
2013-03-26 19:59:00,56.8,16.2,30.24,WNW,288,3.6,7.6,20,0.00,,---,0.00,VWS V14.01,2013-03-26 23:59:00,
2013-03-26 20:04:00,56.8,16.2,30.24,NW,307,5.4,5.4,20,0.00,,---,0.00,VWS V14.01,2013-03-27 00:04:00,
2013-03-26 20:10:00,56.5,15.9,30.24,WNW,290,6.7,6.7,20,0.00,,---,0.00,VWS V14.01,2013-03-27 00:10:00,
2013-03-26 20:15:00,56.3,15.8,30.24,West,266,8.7,8.7,20,0.00,,---,0.00,VWS V14.01,2013-03-27 00:15:00,
2013-03-26 20:20:00,55.8,15.3,30.24,WNW,294,5.4,5.4,20,0.00,,---,0.00,VWS V14.01,2013-03-27 00:20:00,
2013-03-26 20:25:00,55.4,15.0,30.24,West,272,4.9,11.0,20,0.00,,---,0.00,VWS V14.01,2013-03-27 00:25:00,
2013-03-26 20:30:00,55.4,15.0,30.24,NW,316,4.0,5.4,20,0.00,,---,0.00,VWS V14.01,2013-03-27 00:30:00,
2013-03-26 20:35:00,54.9,14.6,30.24,NW,304,3.6,3.6,20,0.00,,---,0.00,VWS V14.01,2013-03-27 00:35:00,
2013-03-26 20:40:00,54.5,14.3,30.24,WNW,295,5.4,5.4,20,0.00,,---,0.00,VWS V14.01,2013-03-27 00:40:00,
2013-03-26 20:45:00,54.3,14.1,30.24,West,274,10.1,10.1,20,0.00,,---,0.00,VWS V14.01,2013-03-27 00:45:00,
2013-03-26 20:50:00,54.5,14.3,30.24,WSW,250,7.6,7.6,20,0.00,,---,0.00,VWS V14.01,2013-03-27 00:50:00,
2013-03-26 20:55:00,53.8,13.7,30.24,NW,319,5.8,5.8,20,0.00,,---,0.00,VWS V14.01,2013-03-27 00:55:00,
2013-03-26 21:00:00,53.4,14.5,30.24,WNW,288,3.6,3.6,21,0.00,,---,0.00,VWS V14.01,2013-03-27 01:00:00,
2013-03-26 21:05:00,53.6,13.5,30.24,WNW,291,2.7,2.7,20,0.00,,---,0.00,VWS V14.01,2013-03-27 01:05:00,
2013-03-26 21:11:00,53.2,14.3,30.27,West,276,5.4,5.4,21,0.00,,---,0.00,VWS V14.01,2013-03-27 01:11:00,
2013-03-26 21:16:00,53.1,14.2,30.27,WNW,285,4.0,5.4,21,0.00,,---,0.00,VWS V14.01,2013-03-27 01:16:00,
2013-03-26 21:21:00,52.5,13.7,30.27,NW,308,3.6,4.0,21,0.00,,---,0.00,VWS V14.01,2013-03-27 01:21:00,
2013-03-26 21:26:00,52.2,13.4,30.27,WNW,297,8.1,8.1,21,0.00,,---,0.00,VWS V14.01,2013-03-27 01:26:00,
2013-03-26 21:32:00,52.0,13.3,30.27,West,272,4.0,8.7,21,0.00,,---,0.00,VWS V14.01,2013-03-27 01:32:00,
2013-03-26 21:37:00,52.0,13.3,30.27,NW,305,5.4,5.4,21,0.00,,---,0.00,VWS V14.01,2013-03-27 01:37:00,
2013-03-26 21:42:00,51.8,13.1,30.27,WNW,285,2.7,5.4,21,0.00,,---,0.00,VWS V14.01,2013-03-27 01:42:00,
2013-03-26 21:47:00,51.3,15.7,30.27,WNW,293,3.1,5.4,24,0.00,,---,0.00,VWS V14.01,2013-03-27 01:47:00,
2013-03-26 21:52:00,51.1,15.6,30.27,WNW,302,5.8,5.8,24,0.00,,---,0.00,VWS V14.01,2013-03-27 01:52:00,
2013-03-26 21:57:00,50.7,15.3,30.27,NW,312,4.9,4.9,24,0.00,,---,0.00,VWS V14.01,2013-03-27 01:57:00,
2013-03-26 22:02:00,50.5,15.1,30.27,West,267,4.0,5.8,24,0.00,,---,0.00,VWS V14.01,2013-03-27 02:02:00,
2013-03-26 22:07:00,50.7,15.3,30.30,WNW,287,3.1,3.1,24,0.00,,---,0.00,VWS V14.01,2013-03-27 02:07:00,
2013-03-26 22:12:00,50.2,16.6,30.30,West,281,5.4,5.4,26,0.00,,---,0.00,VWS V14.01,2013-03-27 02:12:00,
2013-03-26 22:17:00,50.2,16.6,30.30,WNW,287,6.3,6.3,26,0.00,,---,0.00,VWS V14.01,2013-03-27 02:17:00,
2013-03-26 22:23:00,50.2,16.6,30.30,WNW,290,7.2,7.2,26,0.00,,---,0.00,VWS V14.01,2013-03-27 02:23:00,
2013-03-26 22:28:00,49.8,16.3,30.30,WNW,290,2.7,4.9,26,0.00,,---,0.00,VWS V14.01,2013-03-27 02:28:00,
2013-03-26 22:33:00,49.6,17.0,30.30,NW,308,3.6,3.6,27,0.00,,---,0.00,VWS V14.01,2013-03-27 02:33:00,
2013-03-26 22:38:00,48.9,16.4,30.30,West,265,2.7,3.6,27,0.00,,---,0.00,VWS V14.01,2013-03-27 02:38:00,
2013-03-26 22:43:00,48.7,16.3,30.30,WNW,283,3.1,3.1,27,0.00,,---,0.00,VWS V14.01,2013-03-27 02:43:00,
2013-03-26 22:48:00,48.9,16.4,30.30,WNW,290,4.0,9.6,27,0.00,,---,0.00,VWS V14.01,2013-03-27 02:48:00,
2013-03-26 22:53:00,48.6,17.0,30.30,WNW,300,3.6,3.6,28,0.00,,---,0.00,VWS V14.01,2013-03-27 02:53:00,
2013-03-26 22:58:00,48.2,15.8,30.30,West,280,2.7,2.7,27,0.00,,---,0.00,VWS V14.01,2013-03-27 02:58:00,
2013-03-26 23:03:00,48.2,15.8,30.30,WNW,286,4.9,4.9,27,0.00,,---,0.00,VWS V14.01,2013-03-27 03:03:00,
2013-03-26 23:09:00,47.8,16.3,30.30,West,278,3.6,4.0,28,0.00,,---,0.00,VWS V14.01,2013-03-27 03:09:00,
2013-03-26 23:14:00,47.7,17.0,30.30,WNW,294,2.7,3.1,29,0.00,,---,0.00,VWS V14.01,2013-03-27 03:14:00,
2013-03-26 23:19:00,47.7,17.0,30.30,WNW,295,3.6,5.4,29,0.00,,---,0.00,VWS V14.01,2013-03-27 03:19:00,
2013-03-26 23:24:00,47.5,16.8,30.30,WNW,282,2.7,2.7,29,0.00,,---,0.00,VWS V14.01,2013-03-27 03:24:00,
2013-03-26 23:29:00,47.3,16.7,30.30,WNW,284,3.1,3.6,29,0.00,,---,0.00,VWS V14.01,2013-03-27 03:29:00,
2013-03-26 23:34:00,47.3,16.7,30.30,NNW,337,3.6,3.6,29,0.00,,---,0.00,VWS V14.01,2013-03-27 03:34:00,
2013-03-26 23:39:00,46.9,17.1,30.30,NW,311,3.1,3.1,30,0.00,,---,0.00,VWS V14.01,2013-03-27 03:39:00,
2013-03-26 23:44:00,46.9,17.9,30.30,WNW,285,6.3,7.6,31,0.00,,---,0.00,VWS V14.01,2013-03-27 03:44:00,
2013-03-26 23:49:00,47.3,17.5,30.30,WNW,294,4.0,5.4,30,0.00,,---,0.00,VWS V14.01,2013-03-27 03:49:00,
2013-03-26 23:54:00,47.1,17.3,30.30,West,277,5.4,5.4,30,0.00,,---,0.00,VWS V14.01,2013-03-27 03:54:00,
2013-03-26 23:59:00,46.9,17.1,30.30,WNW,290,3.6,6.7,30,0.00,,---,0.00,VWS V14.01,2013-03-27 03:59:00,